Time;durP1;ratioP1;P1;durP2;ratioP2;P2;SDS_P1;SDS_P2;PMS_P1;PMS_P2;Temp;Humidity;BMP_temperature;BMP_pressure;BME280_temperature;BME280_humidity;BME280_pressure;Samples;Min_cycle;Max_cycle;Signal;HPM_P1;HPM_P2
2021/12/05 00:22:56;;;;;;;8.00;2.60;;;6.30;99.80;;;;;;4995233;28;20486;-72
2021/12/05 00:25:28;;;;;;;8.00;2.50;;;6.30;99.70;;;;;;4995128;28;20463;-73
2021/12/05 00:28:09;;;;;;;9.90;3.10;;;6.30;99.80;;;;;;4995403;28;20469;-72
2021/12/05 00:31:02;;;;;;;9.33;2.93;;;6.30;99.70;;;;;;4995693;28;20490;-75
2021/12/05 00:33:49;;;;;;;10.30;2.67;;;6.30;99.60;;;;;;4995193;28;20440;-74
2021/12/05 00:39:33;;;;;;;8.97;2.87;;;6.20;99.90;;;;;;4994672;28;20797;-72
2021/12/05 00:45:38;;;;;;;10.60;2.63;;;6.20;99.70;;;;;;4957593;28;20481;-73
2021/12/05 00:48:17;;;;;;;12.57;2.80;;;6.20;99.90;;;;;;4994275;28;20891;-73
2021/12/05 00:51:09;;;;;;;7.43;2.30;;;6.20;99.90;;;;;;4995043;28;20464;-74
2021/12/05 00:56:30;;;;;;;7.03;2.50;;;6.10;99.90;;;;;;4994639;28;20424;-74
2021/12/05 00:59:15;;;;;;;9.10;2.70;;;6.10;99.90;;;;;;4994833;28;20789;-74
2021/12/05 01:04:48;;;;;;;5.93;2.10;;;6.00;99.90;;;;;;4994932;28;20428;-74
2021/12/05 01:07:38;;;;;;;5.50;2.50;;;6.10;99.90;;;;;;4994625;28;20843;-74
2021/12/05 01:10:14;;;;;;;17.60;2.80;;;6.10;99.90;;;;;;4994759;28;20417;-73
2021/12/05 01:12:44;;;;;;;10.60;3.50;;;6.10;99.90;;;;;;4994513;28;20440;-74
2021/12/05 01:15:17;;;;;;;7.10;3.13;;;6.10;99.90;;;;;;4994848;28;20515;-74
2021/12/05 01:17:58;;;;;;;12.33;2.73;;;6.20;99.90;;;;;;4994555;28;20436;-73
2021/12/05 01:20:29;;;;;;;11.00;2.73;;;6.10;99.90;;;;;;4994435;28;20564;-73
2021/12/05 01:23:01;;;;;;;12.73;4.30;;;6.10;99.90;;;;;;4994390;28;20437;-74
2021/12/05 01:25:38;;;;;;;11.40;2.57;;;6.10;99.90;;;;;;4994020;28;20451;-74
2021/12/05 01:28:13;;;;;;;8.07;2.63;;;6.10;99.90;;;;;;4994182;28;20499;-74
2021/12/05 01:30:46;;;;;;;15.33;2.97;;;6.20;99.90;;;;;;4994517;28;20479;-73
2021/12/05 01:33:20;;;;;;;11.23;3.10;;;6.10;99.90;;;;;;4994066;28;20442;-73
2021/12/05 01:38:50;;;;;;;13.03;3.23;;;6.10;99.80;;;;;;4993836;28;20447;-73
2021/12/05 01:41:52;;;;;;;14.37;2.67;;;6.00;99.70;;;;;;4994459;28;20484;-73
2021/12/05 01:47:50;;;;;;;11.03;2.73;;;6.00;99.80;;;;;;4993969;28;20557;-74
2021/12/05 01:50:52;;;;;;;9.40;3.37;;;6.00;99.90;;;;;;4993919;28;20441;-73
2021/12/05 01:53:44;;;;;;;8.10;2.53;;;5.90;99.90;;;;;;4994046;28;20490;-73
2021/12/05 02:12:37;;;;;;;7.23;2.83;;;6.00;99.80;;;;;;4954678;28;20504;-74
2021/12/05 02:15:25;;;;;;;8.20;2.30;;;6.00;99.80;;;;;;4974224;28;20907;-74
2021/12/05 02:32:01;;;;;;;10.07;2.77;;;5.90;99.80;;;;;;4974425;28;20409;-74
2021/12/05 02:34:39;;;;;;;4.27;2.50;;;5.90;99.90;;;;;;4974410;28;20429;-74
2021/12/05 02:37:18;;;;;;;7.23;2.07;;;5.90;99.90;;;;;;4974241;28;20441;-74
2021/12/05 02:39:54;;;;;;;11.30;2.43;;;5.90;99.90;;;;;;4974392;28;20804;-74
2021/12/05 02:42:29;;;;;;;11.67;2.07;;;5.90;99.90;;;;;;4973854;28;21060;-74
2021/12/05 02:44:57;;;;;;;7.73;2.27;;;5.90;99.80;;;;;;4973967;28;20801;-74
2021/12/05 02:47:27;;;;;;;10.20;2.30;;;5.90;99.90;;;;;;4974709;28;20484;-74
2021/12/05 02:49:58;;;;;;;7.13;2.10;;;5.90;99.90;;;;;;4974271;28;20492;-74
2021/12/05 02:52:31;;;;;;;6.43;2.67;;;5.90;99.80;;;;;;4974158;28;20828;-74
2021/12/05 02:55:05;;;;;;;8.40;2.53;;;5.90;99.80;;;;;;4974224;28;20528;-74
2021/12/05 02:57:48;;;;;;;11.90;2.20;;;5.80;99.80;;;;;;4974075;28;20453;-74
2021/12/05 03:00:22;;;;;;;10.00;2.37;;;5.80;99.90;;;;;;4974227;28;20903;-74
2021/12/05 03:02:52;;;;;;;7.20;2.90;;;5.80;99.90;;;;;;4976045;28;20474;-74
2021/12/05 03:05:21;;;;;;;8.00;2.47;;;5.80;99.80;;;;;;4977436;28;20496;-74
2021/12/05 03:07:56;;;;;;;9.00;2.50;;;5.80;99.90;;;;;;4977137;28;20485;-74
2021/12/05 03:10:23;;;;;;;8.70;2.47;;;5.80;99.70;;;;;;4977609;28;20447;-75
2021/12/05 03:12:50;;;;;;;8.67;2.70;;;5.80;99.70;;;;;;4977457;28;20477;-74
2021/12/05 03:15:19;;;;;;;3.90;2.10;;;5.80;99.70;;;;;;4977260;28;20449;-75
2021/12/05 03:17:46;;;;;;;7.83;2.57;;;5.80;99.70;;;;;;4977259;28;20445;-74
2021/12/05 03:20:15;;;;;;;8.17;2.23;;;5.80;99.80;;;;;;4977208;28;20807;-75
2021/12/05 03:22:42;;;;;;;9.43;2.63;;;5.80;99.90;;;;;;4977077;28;20469;-74
2021/12/05 03:25:12;;;;;;;7.20;2.30;;;5.80;99.80;;;;;;4977098;28;20449;-75
2021/12/05 03:27:41;;;;;;;11.57;2.70;;;5.80;99.60;;;;;;4976826;28;20493;-75
2021/12/05 03:30:09;;;;;;;7.10;2.10;;;5.80;99.50;;;;;;4977095;28;20453;-74
2021/12/05 03:32:37;;;;;;;7.43;1.80;;;5.80;99.50;;;;;;4976988;28;20473;-75
2021/12/05 03:35:05;;;;;;;6.90;2.30;;;5.80;99.40;;;;;;4976824;28;20449;-75
2021/12/05 03:37:32;;;;;;;7.40;2.60;;;5.80;99.50;;;;;;4976863;28;20449;-75
2021/12/05 03:40:00;;;;;;;8.37;3.03;;;5.80;99.40;;;;;;4976879;28;20456;-74
2021/12/05 03:42:28;;;;;;;6.47;2.73;;;5.80;99.30;;;;;;4976334;28;20979;-75
2021/12/05 03:44:54;;;;;;;5.10;3.70;;;5.80;99.30;;;;;;4976680;28;20449;-75
2021/12/05 03:47:21;;;;;;;6.30;3.17;;;5.80;99.30;;;;;;4976714;28;20481;-75
2021/12/05 03:49:48;;;;;;;7.27;2.67;;;5.80;99.30;;;;;;4976783;28;20460;-75
2021/12/05 03:52:17;;;;;;;6.90;2.67;;;5.70;99.20;;;;;;4976367;28;20468;-74
2021/12/05 03:54:46;;;;;;;6.27;2.53;;;5.70;99.40;;;;;;4976648;28;20449;-75
2021/12/05 03:57:13;;;;;;;5.27;2.07;;;5.70;99.50;;;;;;4976382;28;20844;-74
2021/12/05 03:59:44;;;;;;;4.87;2.10;;;5.60;99.40;;;;;;4976472;28;20449;-74
2021/12/05 04:02:11;;;;;;;6.40;2.60;;;5.70;99.40;;;;;;4976739;28;20560;-74
2021/12/05 04:04:39;;;;;;;6.37;2.40;;;5.60;99.20;;;;;;4976075;28;20866;-75
2021/12/05 04:07:08;;;;;;;6.20;2.40;;;5.70;99.30;;;;;;4976073;28;20481;-75
2021/12/05 04:09:35;;;;;;;5.40;2.20;;;5.70;99.30;;;;;;4976600;28;20540;-75
2021/12/05 04:12:03;;;;;;;5.90;2.17;;;5.70;99.40;;;;;;4976307;28;20461;-75
2021/12/05 04:14:34;;;;;;;7.20;2.03;;;5.70;99.30;;;;;;4975197;28;20456;-75
2021/12/05 04:17:04;;;;;;;6.30;2.27;;;5.70;99.30;;;;;;4975992;28;20800;-75
2021/12/05 04:19:32;;;;;;;10.90;2.20;;;5.70;99.20;;;;;;4976138;28;20434;-75
2021/12/05 04:21:59;;;;;;;4.57;1.70;;;5.70;99.30;;;;;;4976153;28;20480;-75
2021/12/05 04:24:25;;;;;;;4.43;1.80;;;5.70;99.30;;;;;;4975925;28;20448;-75
2021/12/05 04:26:52;;;;;;;8.83;2.30;;;5.70;99.20;;;;;;4975863;28;20464;-75
2021/12/05 04:29:19;;;;;;;7.27;1.73;;;5.70;99.10;;;;;;4975808;28;20433;-75
2021/12/05 04:31:47;;;;;;;2.40;1.50;;;5.70;99.10;;;;;;4975412;28;20939;-75
2021/12/05 04:34:16;;;;;;;5.37;2.30;;;5.70;99.00;;;;;;4975820;28;20453;-75
2021/12/05 04:36:44;;;;;;;3.70;1.93;;;5.70;99.00;;;;;;4975721;28;20452;-75
2021/12/05 04:39:11;;;;;;;3.30;1.80;;;5.70;99.00;;;;;;4975461;28;20920;-75
2021/12/05 04:41:40;;;;;;;8.17;2.27;;;5.70;98.90;;;;;;4975514;28;20449;-75
2021/12/05 04:44:07;;;;;;;3.73;1.50;;;5.70;98.80;;;;;;4975647;28;20449;-75
2021/12/05 04:46:35;;;;;;;10.10;1.90;;;5.70;99.10;;;;;;4975640;28;20521;-75
2021/12/05 04:49:03;;;;;;;10.70;2.33;;;5.60;98.80;;;;;;4975541;28;20557;-75
2021/12/05 04:51:34;;;;;;;6.40;1.57;;;5.60;99.00;;;;;;4975321;28;20508;-75
2021/12/05 04:54:01;;;;;;;4.23;2.17;;;5.60;98.90;;;;;;4975438;28;20469;-75
2021/12/05 04:56:29;;;;;;;12.47;1.80;;;5.60;98.90;;;;;;4975305;28;20464;-75
2021/12/05 04:58:57;;;;;;;5.70;1.70;;;5.50;98.90;;;;;;4975319;28;20422;-76
2021/12/05 05:01:25;;;;;;;9.23;2.33;;;5.60;98.90;;;;;;4975358;28;20833;-75
2021/12/05 05:03:52;;;;;;;7.47;1.60;;;5.50;98.90;;;;;;4975239;28;20528;-75
2021/12/05 05:06:20;;;;;;;5.03;2.10;;;5.60;99.00;;;;;;4975317;28;20452;-75
2021/12/05 05:08:51;;;;;;;7.90;1.97;;;5.50;98.90;;;;;;4975085;28;20492;-75
2021/12/05 05:11:20;;;;;;;5.10;1.97;;;5.50;98.90;;;;;;4975734;28;20910;-75
2021/12/05 05:13:47;;;;;;;8.83;1.90;;;5.60;98.80;;;;;;4975081;28;20476;-75
2021/12/05 05:16:16;;;;;;;4.20;1.73;;;5.60;98.70;;;;;;4974998;28;20434;-75
2021/12/05 05:18:47;;;;;;;4.63;1.90;;;5.50;98.60;;;;;;4974664;28;20947;-75
2021/12/05 05:21:27;;;;;;;2.50;1.80;;;5.50;98.60;;;;;;4975027;28;20438;-75
2021/12/05 05:24:13;;;;;;;18.57;2.47;;;5.50;98.40;;;;;;4974910;28;20555;-75
2021/12/05 05:29:52;;;;;;;2.83;1.80;;;5.50;98.50;;;;;;4975261;28;20397;-75
2021/12/05 05:40:56;;;;;;;3.77;1.57;;;5.50;98.50;;;;;;4974819;28;20502;-76
2021/12/05 05:43:33;;;;;;;11.83;2.30;;;5.50;98.50;;;;;;4974712;28;20473;-75
2021/12/05 05:46:10;;;;;;;8.47;2.57;;;5.50;98.50;;;;;;4974729;28;20433;-75
2021/12/05 05:48:41;;;;;;;9.43;3.53;;;5.40;98.60;;;;;;4974927;28;20469;-75
2021/12/05 05:51:11;;;;;;;5.30;3.00;;;5.40;98.80;;;;;;4974639;28;20442;-75
2021/12/05 05:53:38;;;;;;;8.40;3.00;;;5.40;99.00;;;;;;4974587;28;20917;-75
2021/12/05 05:56:12;;;;;;;6.37;3.63;;;5.40;98.90;;;;;;4974469;28;20472;-75
2021/12/05 05:58:43;;;;;;;5.73;4.03;;;5.50;99.10;;;;;;4974194;28;20544;-75
2021/12/05 06:01:20;;;;;;;4.80;3.60;;;5.50;99.10;;;;;;4975304;28;20437;-75
2021/12/05 06:03:47;;;;;;;7.10;3.97;;;5.50;99.10;;;;;;4974403;28;20477;-75
2021/12/05 06:06:16;;;;;;;6.20;2.87;;;5.50;99.20;;;;;;4974333;28;20445;-75
2021/12/05 06:08:45;;;;;;;6.37;2.23;;;5.50;99.10;;;;;;4974494;28;20576;-75
2021/12/05 06:11:16;;;;;;;8.30;2.50;;;5.50;99.10;;;;;;4974349;28;20504;-75
2021/12/05 06:13:44;;;;;;;5.40;2.30;;;5.60;98.90;;;;;;4974399;28;20520;-75
2021/12/05 06:16:13;;;;;;;5.80;2.70;;;5.60;98.40;;;;;;4974062;28;20449;-75
2021/12/05 06:18:40;;;;;;;5.40;2.40;;;5.60;98.50;;;;;;4974408;28;20437;-75
2021/12/05 06:21:08;;;;;;;5.10;2.43;;;5.60;98.60;;;;;;4974434;28;20520;-75
2021/12/05 06:23:36;;;;;;;3.00;1.80;;;5.60;98.50;;;;;;4974351;28;20478;-75
2021/12/05 06:26:03;;;;;;;6.27;2.70;;;5.60;98.40;;;;;;4974410;28;20445;-75
2021/12/05 06:28:35;;;;;;;6.73;2.10;;;5.70;98.50;;;;;;4974205;28;20991;-73
2021/12/05 06:31:10;;;;;;;2.63;2.40;;;5.70;98.40;;;;;;4974008;28;20908;-73
2021/12/05 06:39:23;;;;;;;8.20;2.60;;;5.70;98.00;;;;;;4978002;28;20400;-71
2021/12/05 06:42:00;;;;;;;6.50;2.70;;;5.70;98.30;;;;;;4977787;28;20441;-71
2021/12/05 06:47:14;;;;;;;4.30;2.20;;;5.70;98.40;;;;;;4977644;28;20414;-71
2021/12/05 06:49:41;;;;;;;2.50;1.80;;;5.70;98.40;;;;;;4977819;28;20445;-71
2021/12/05 06:52:09;;;;;;;4.63;1.87;;;5.70;98.40;;;;;;4978005;28;20473;-72
2021/12/05 06:54:37;;;;;;;4.37;2.07;;;5.70;98.40;;;;;;4977734;28;20511;-71
2021/12/05 06:57:04;;;;;;;3.20;1.47;;;5.70;98.40;;;;;;4977435;28;20463;-72
2021/12/05 06:59:33;;;;;;;8.87;2.40;;;5.70;98.50;;;;;;4977686;28;20422;-71
2021/12/05 07:02:00;;;;;;;7.60;2.10;;;5.80;98.30;;;;;;4977227;28;20971;-71
2021/12/05 07:04:47;;;;;;;3.23;2.17;;;5.80;98.10;;;;;;4977583;28;20429;-71
2021/12/05 07:07:20;;;;;;;5.43;2.90;;;5.80;98.20;;;;;;4977501;28;20433;-72
2021/12/05 07:09:47;;;;;;;4.90;3.30;;;5.80;98.00;;;;;;4977480;28;20428;-72
2021/12/05 07:15:04;;;;;;;4.13;2.50;;;5.80;97.50;;;;;;4977178;28;20491;-72
2021/12/05 07:20:11;;;;;;;8.03;2.30;;;5.80;97.20;;;;;;4977278;28;20434;-72
2021/12/05 07:22:46;;;;;;;2.60;2.40;;;5.80;97.20;;;;;;4977303;28;20233;-72
2021/12/05 07:25:25;;;;;;;2.40;2.00;;;5.80;97.20;;;;;;4977591;28;20439;-72
2021/12/05 07:41:52;;;;;;;13.00;1.60;;;6.00;97.40;;;;;;4960220;28;20433;-72
2021/12/05 07:44:20;;;;;;;4.93;1.73;;;6.10;97.60;;;;;;4976969;28;20437;-72
2021/12/05 07:46:48;;;;;;;3.43;3.03;;;6.10;97.70;;;;;;4976877;28;20500;-72
2021/12/05 07:49:17;;;;;;;4.23;1.97;;;6.20;97.30;;;;;;4977263;28;20513;-72
2021/12/05 07:51:47;;;;;;;3.40;1.70;;;6.20;97.20;;;;;;4976680;28;20511;-72
2021/12/05 07:54:27;;;;;;;2.80;1.60;;;6.20;97.20;;;;;;4976420;28;20939;-72
2021/12/05 07:57:03;;;;;;;6.07;1.90;;;6.20;97.10;;;;;;4976462;28;20508;-72
2021/12/05 07:59:43;;;;;;;5.40;1.70;;;6.20;97.10;;;;;;4977197;28;20436;-72
2021/12/05 08:16:01;;;;;;;3.07;1.60;;;6.30;96.80;;;;;;4976667;28;20770;-73
2021/12/05 08:18:31;;;;;;;3.33;1.60;;;6.30;96.90;;;;;;4976249;28;20850;-73
2021/12/05 08:20:59;;;;;;;4.27;1.83;;;6.30;96.90;;;;;;4975903;28;20453;-74
2021/12/05 08:23:26;;;;;;;7.20;2.00;;;6.30;97.00;;;;;;4976106;28;20523;-73
2021/12/05 08:26:02;;;;;;;3.03;1.70;;;6.30;97.10;;;;;;4976094;28;20447;-73
2021/12/05 08:28:46;;;;;;;2.83;1.83;;;6.30;97.30;;;;;;4976067;28;20472;-73
2021/12/05 08:31:22;;;;;;;3.10;2.10;;;6.30;97.50;;;;;;4976005;28;20524;-73
2021/12/05 08:34:02;;;;;;;4.27;1.80;;;6.30;97.60;;;;;;4975948;28;20926;-73
2021/12/05 08:36:55;;;;;;;2.97;2.13;;;6.30;97.80;;;;;;4976283;28;20438;-73
2021/12/05 08:40:10;;;;;;;4.10;1.70;;;6.30;97.40;;;;;;4977771;28;20915;-72
2021/12/05 08:43:04;;;;;;;2.37;2.17;;;6.20;97.40;;;;;;4976080;28;20465;-72
2021/12/05 08:46:16;;;;;;;5.33;2.23;;;6.20;97.50;;;;;;4976322;28;20445;-72
2021/12/05 09:24:44;;;;;;;3.30;2.70;;;6.20;97.70;;;;;;4953243;28;20500;-72
2021/12/05 09:38:51;;;;;;;13.83;8.37;;;6.40;98.20;;;;;;4975299;28;20440;-74
2021/12/05 10:06:40;;;;;;;3.30;2.67;;;6.60;97.60;;;;;;4974688;28;20448;-72
2021/12/05 10:09:36;;;;;;;3.87;2.83;;;6.70;97.20;;;;;;4964353;28;20480;-72
2021/12/05 10:12:25;;;;;;;5.60;3.47;;;6.70;97.30;;;;;;4977110;28;20477;-72
2021/12/05 10:15:16;;;;;;;6.10;3.47;;;6.70;97.10;;;;;;4978679;28;20543;-72
2021/12/05 10:27:07;;;;;;;2.97;2.67;;;6.60;97.60;;;;;;4978463;28;20942;-73
2021/12/05 10:38:01;;;;;;;4.90;4.20;;;6.70;98.30;;;;;;4977767;28;20565;-73
2021/12/05 10:40:36;;;;;;;2.73;2.53;;;6.80;98.30;;;;;;4978131;28;20509;-74
2021/12/05 10:43:12;;;;;;;2.60;2.33;;;6.80;98.30;;;;;;4977720;28;20469;-73
2021/12/05 10:45:41;;;;;;;3.87;2.60;;;6.80;98.40;;;;;;4978033;28;20429;-76
2021/12/05 10:48:11;;;;;;;8.57;3.00;;;6.90;98.50;;;;;;4978785;28;20449;-75
2021/12/05 10:50:41;;;;;;;3.43;2.80;;;7.00;98.70;;;;;;4978206;28;20433;-75
2021/12/05 10:53:23;;;;;;;3.83;2.00;;;7.10;98.80;;;;;;4977619;28;20464;-75
2021/12/05 10:55:57;;;;;;;3.37;2.33;;;7.10;98.10;;;;;;4977768;28;20461;-74
2021/12/05 10:58:29;;;;;;;6.33;2.30;;;7.20;98.10;;;;;;4977452;28;20500;-74
2021/12/05 11:01:05;;;;;;;4.00;3.03;;;7.20;97.80;;;;;;4977746;28;20464;-74
2021/12/05 11:03:33;;;;;;;3.40;2.10;;;7.30;97.60;;;;;;4977643;28;20488;-74
2021/12/05 11:06:00;;;;;;;8.20;3.90;;;7.30;97.70;;;;;;4977651;28;20449;-74
2021/12/05 11:08:33;;;;;;;6.77;4.10;;;7.40;97.50;;;;;;4977586;28;20485;-72
2021/12/05 11:11:08;;;;;;;4.10;3.70;;;7.50;97.70;;;;;;4977527;28;20440;-74
2021/12/05 11:13:37;;;;;;;5.70;3.50;;;7.70;97.60;;;;;;4977449;28;20474;-74
2021/12/05 11:16:06;;;;;;;2.57;2.37;;;7.90;97.40;;;;;;4977510;28;20445;-74
2021/12/05 11:18:44;;;;;;;2.57;1.73;;;8.20;96.80;;;;;;4977381;28;20441;-74
2021/12/05 11:21:32;;;;;;;4.77;1.57;;;8.50;95.60;;;;;;4977365;28;20445;-74
2021/12/05 11:24:07;;;;;;;2.87;2.00;;;8.70;94.60;;;;;;4976736;28;20438;-74
2021/12/05 11:26:34;;;;;;;8.60;5.90;;;9.00;94.00;;;;;;4977263;28;20457;-74
2021/12/05 11:29:01;;;;;;;3.47;2.47;;;9.20;93.60;;;;;;4977166;28;20477;-74
2021/12/05 11:31:31;;;;;;;3.00;2.20;;;9.50;92.70;;;;;;4976911;28;20939;-73
2021/12/05 11:34:00;;;;;;;2.67;1.80;;;9.80;91.30;;;;;;4977437;28;20480;-74
2021/12/05 11:36:28;;;;;;;3.23;1.60;;;10.10;89.10;;;;;;4976839;28;20935;-73
2021/12/05 11:38:55;;;;;;;5.70;2.07;;;10.50;87.30;;;;;;4977053;28;20488;-72
2021/12/05 11:41:24;;;;;;;2.40;1.80;;;10.80;85.00;;;;;;4977002;28;20453;-73
2021/12/05 11:43:53;;;;;;;3.97;2.07;;;11.10;82.00;;;;;;4976944;28;20813;-73
2021/12/05 11:46:22;;;;;;;2.43;1.40;;;11.00;78.90;;;;;;4976641;28;20631;-73
2021/12/05 11:48:52;;;;;;;2.30;1.70;;;10.90;78.50;;;;;;4976810;28;20513;-73
2021/12/05 11:51:30;;;;;;;2.87;1.47;;;10.60;78.70;;;;;;4976833;28;20994;-73
2021/12/05 11:54:00;;;;;;;1.60;1.30;;;10.30;80.10;;;;;;4976757;28;20476;-73
2021/12/05 11:56:47;;;;;;;2.03;1.60;;;10.10;80.90;;;;;;4976904;28;20863;-75
2021/12/05 11:59:18;;;;;;;2.53;1.40;;;9.90;83.50;;;;;;4976460;28;20781;-75
2021/12/05 12:02:00;;;;;;;5.83;1.30;;;9.80;84.20;;;;;;4976626;28;20433;-74
2021/12/05 12:04:39;;;;;;;4.63;1.73;;;9.80;84.50;;;;;;4976615;28;20444;-75
2021/12/05 12:07:13;;;;;;;2.40;1.63;;;9.80;84.60;;;;;;4976273;28;20444;-74
2021/12/05 12:09:40;;;;;;;3.30;1.60;;;9.90;84.70;;;;;;4976180;28;20646;-72
2021/12/05 12:12:07;;;;;;;3.73;1.33;;;9.90;84.80;;;;;;4976384;28;20465;-72
2021/12/05 12:14:34;;;;;;;2.20;1.63;;;9.90;84.20;;;;;;4976428;28;20453;-72
2021/12/05 12:17:04;;;;;;;3.70;1.60;;;10.00;83.50;;;;;;4976397;28;20453;-72
2021/12/05 12:19:31;;;;;;;3.73;1.03;;;10.10;83.30;;;;;;4975925;28;20426;-72
2021/12/05 12:22:00;;;;;;;1.30;1.20;;;10.20;82.10;;;;;;4976206;28;20470;-72
2021/12/05 12:24:28;;;;;;;2.40;0.97;;;10.40;82.70;;;;;;4976251;28;20453;-75
2021/12/05 12:26:55;;;;;;;1.90;1.53;;;10.50;80.40;;;;;;4976142;28;20456;-74
2021/12/05 12:29:24;;;;;;;3.27;1.70;;;10.60;78.00;;;;;;4976079;28;20485;-75
2021/12/05 12:31:51;;;;;;;2.07;1.37;;;10.60;77.90;;;;;;4975756;28;20961;-74
2021/12/05 12:34:21;;;;;;;2.03;1.30;;;10.60;78.20;;;;;;4975245;28;20452;-75
2021/12/05 12:36:50;;;;;;;3.20;0.90;;;10.70;78.20;;;;;;4975966;28;20500;-75
2021/12/05 12:39:32;;;;;;;1.20;1.10;;;10.80;75.70;;;;;;4975975;28;20446;-74
2021/12/05 12:42:05;;;;;;;2.27;1.00;;;11.10;75.40;;;;;;4975860;28;20473;-75
2021/12/05 12:44:32;;;;;;;1.60;0.80;;;11.50;74.20;;;;;;4975920;28;20453;-75
2021/12/05 12:47:04;;;;;;;2.63;0.90;;;11.70;72.60;;;;;;4975596;28;20448;-75
2021/12/05 12:49:33;;;;;;;3.20;1.10;;;11.80;71.90;;;;;;4975764;28;20472;-75
2021/12/05 12:52:03;;;;;;;2.43;1.07;;;11.70;68.90;;;;;;4975719;28;20473;-74
2021/12/05 12:54:34;;;;;;;4.37;1.30;;;11.50;68.90;;;;;;4975654;28;20434;-74
2021/12/05 12:57:12;;;;;;;1.77;1.20;;;11.20;70.20;;;;;;4975887;28;20464;-74
2021/12/05 12:59:43;;;;;;;2.20;1.30;;;11.00;71.60;;;;;;4975300;28;20481;-75
2021/12/05 13:02:37;;;;;;;1.90;1.40;;;10.70;72.20;;;;;;4975599;28;20480;-75
2021/12/05 13:10:42;;;;;;;2.40;1.40;;;10.30;75.80;;;;;;4975380;28;20460;-75
2021/12/05 13:13:15;;;;;;;3.30;1.30;;;10.20;76.30;;;;;;4975353;28;20473;-74
2021/12/05 13:15:46;;;;;;;1.37;1.00;;;10.20;76.70;;;;;;4975327;28;20449;-72
2021/12/05 13:18:29;;;;;;;1.50;0.80;;;10.00;75.90;;;;;;4975323;28;20512;-72
2021/12/05 13:21:00;;;;;;;1.20;1.10;;;9.80;77.10;;;;;;4975009;28;20903;-72
2021/12/05 13:23:32;;;;;;;1.27;0.83;;;9.60;79.00;;;;;;4974890;28;20476;-72
2021/12/05 13:26:24;;;;;;;1.17;0.80;;;9.50;80.00;;;;;;4975226;28;20460;-72
2021/12/05 13:28:53;;;;;;;1.63;0.87;;;9.40;81.50;;;;;;4975086;28;20433;-72
2021/12/05 13:31:41;;;;;;;1.73;0.83;;;9.30;82.20;;;;;;4975086;28;20456;-72
2021/12/05 13:34:25;;;;;;;2.37;1.00;;;9.20;83.00;;;;;;4975063;28;20430;-72
2021/12/05 13:36:55;;;;;;;3.83;0.93;;;9.10;83.10;;;;;;4975035;28;20430;-72
2021/12/05 13:39:40;;;;;;;4.63;1.33;;;9.10;84.10;;;;;;4974948;28;20448;-71
2021/12/05 13:42:14;;;;;;;3.40;2.10;;;9.10;85.00;;;;;;4974801;28;20473;-72
2021/12/05 13:45:21;;;;;;;3.80;2.60;;;9.00;85.50;;;;;;4974897;28;20437;-71
2021/12/05 13:48:08;;;;;;;2.70;1.40;;;9.00;86.50;;;;;;4974876;28;20840;-72
2021/12/05 13:50:42;;;;;;;2.57;1.00;;;9.00;86.60;;;;;;4974782;28;20469;-71
2021/12/05 13:53:21;;;;;;;2.83;1.07;;;8.90;88.60;;;;;;4974765;28;20473;-71
2021/12/05 13:55:59;;;;;;;3.00;1.10;;;8.70;90.70;;;;;;4974724;28;20503;-71
2021/12/05 13:58:38;;;;;;;2.23;1.37;;;8.50;91.70;;;;;;4974385;28;20468;-72
2021/12/05 14:01:07;;;;;;;2.50;1.30;;;8.30;92.50;;;;;;4974395;28;20444;-72
2021/12/05 14:03:48;;;;;;;2.13;1.73;;;8.10;93.00;;;;;;4974424;28;20958;-72
2021/12/05 14:06:27;;;;;;;1.73;1.40;;;8.10;93.50;;;;;;4974732;28;20446;-72
2021/12/05 14:08:56;;;;;;;1.20;1.10;;;8.00;94.00;;;;;;4974758;28;20449;-72
2021/12/05 14:11:23;;;;;;;2.00;1.30;;;7.90;94.40;;;;;;4974685;28;20540;-72
2021/12/05 14:13:52;;;;;;;3.60;1.60;;;7.90;94.60;;;;;;4974534;28;20469;-72
2021/12/05 14:16:19;;;;;;;3.23;1.40;;;7.80;95.00;;;;;;4974444;28;20939;-72
2021/12/05 14:18:47;;;;;;;3.00;1.70;;;7.70;94.80;;;;;;4974588;28;20452;-72
2021/12/05 14:21:15;;;;;;;2.63;1.73;;;7.60;95.00;;;;;;4974508;28;20457;-72
2021/12/05 14:23:48;;;;;;;1.90;1.50;;;7.60;95.30;;;;;;4974185;28;20982;-72
2021/12/05 14:26:15;;;;;;;2.07;1.40;;;7.60;95.40;;;;;;4974210;28;20484;-72
2021/12/05 14:28:41;;;;;;;1.57;1.43;;;7.60;95.40;;;;;;4974463;28;20859;-72
2021/12/05 14:31:10;;;;;;;1.23;0.97;;;7.70;95.50;;;;;;4974429;28;20484;-72
2021/12/05 14:33:50;;;;;;;1.33;0.97;;;7.70;95.10;;;;;;4974613;28;20465;-73
2021/12/05 14:36:22;;;;;;;1.13;0.80;;;7.70;95.20;;;;;;4974398;28;20794;-75
2021/12/05 14:39:05;;;;;;;2.40;1.10;;;7.70;95.20;;;;;;4974116;28;20958;-75
2021/12/05 14:41:32;;;;;;;1.30;1.10;;;7.70;95.20;;;;;;4974502;28;20453;-75
2021/12/05 14:43:59;;;;;;;2.63;1.23;;;7.70;95.40;;;;;;4974384;28;20828;-73
2021/12/05 14:46:28;;;;;;;1.00;0.90;;;7.70;95.70;;;;;;4974360;28;20441;-75
2021/12/05 14:48:56;;;;;;;1.47;1.37;;;7.70;95.70;;;;;;4974414;28;20448;-76
2021/12/05 14:51:33;;;;;;;32.37;16.93;;;7.70;95.70;;;;;;4974161;28;20579;-75
2021/12/05 14:53:59;;;;;;;6.23;3.90;;;7.80;95.70;;;;;;4974428;28;20477;-74
2021/12/05 14:56:30;;;;;;;3.43;2.30;;;7.90;95.70;;;;;;4974194;28;20449;-75
2021/12/05 14:59:08;;;;;;;3.10;2.33;;;7.90;95.60;;;;;;4976585;28;20437;-75
2021/12/05 15:01:39;;;;;;;3.00;2.20;;;8.00;95.50;;;;;;4977789;28;20434;-75
2021/12/05 15:04:09;;;;;;;2.10;1.63;;;8.00;95.40;;;;;;4977414;28;20900;-75
2021/12/05 15:06:39;;;;;;;5.43;4.83;;;8.00;95.10;;;;;;4977642;28;20543;-75
2021/12/05 15:09:15;;;;;;;12.40;11.10;;;8.00;95.00;;;;;;4977634;28;20804;-75
2021/12/05 15:11:50;;;;;;;3.30;3.10;;;8.10;95.10;;;;;;4977460;28;20460;-73
2021/12/05 15:14:18;;;;;;;1.40;1.30;;;8.10;95.10;;;;;;4977283;28;20471;-73
2021/12/05 15:16:53;;;;;;;1.80;1.10;;;8.10;95.00;;;;;;4977487;28;20461;-75
2021/12/05 15:19:20;;;;;;;1.80;1.30;;;8.10;94.80;;;;;;4978040;28;20437;-75
2021/12/05 15:21:47;;;;;;;4.67;3.20;;;8.10;94.80;;;;;;4977031;28;20966;-75
2021/12/05 15:24:15;;;;;;;4.27;3.97;;;8.10;94.80;;;;;;4977356;28;20448;-76
2021/12/05 15:26:43;;;;;;;8.93;8.23;;;8.10;94.80;;;;;;4977304;28;20457;-73
2021/12/05 15:29:10;;;;;;;3.53;3.23;;;8.10;94.80;;;;;;4977332;28;20449;-75
2021/12/05 15:31:39;;;;;;;3.00;2.03;;;8.10;94.80;;;;;;4976761;28;20535;-75
2021/12/05 15:34:30;;;;;;;2.97;1.80;;;8.10;94.80;;;;;;4976856;28;20859;-73
2021/12/05 15:36:59;;;;;;;2.00;1.90;;;8.10;94.90;;;;;;4977144;28;20429;-73
2021/12/05 15:39:30;;;;;;;4.47;3.10;;;8.00;95.20;;;;;;4977040;28;20453;-73
2021/12/05 15:41:59;;;;;;;6.40;3.63;;;8.00;94.80;;;;;;4977029;28;20476;-74
2021/12/05 15:44:31;;;;;;;6.67;3.40;;;8.00;94.90;;;;;;4977003;28;20535;-73
2021/12/05 15:47:05;;;;;;;5.93;4.27;;;8.00;94.90;;;;;;4977219;28;20433;-74
2021/12/05 15:50:03;;;;;;;6.23;4.70;;;8.00;94.80;;;;;;4976905;28;20460;-73
2021/12/05 15:52:34;;;;;;;6.67;4.90;;;7.90;94.90;;;;;;4953809;28;20837;-74
2021/12/05 15:55:03;;;;;;;7.33;6.60;;;7.80;95.00;;;;;;4976881;28;20806;-73
2021/12/05 15:57:35;;;;;;;6.47;5.57;;;7.80;95.10;;;;;;4976352;28;20955;-72
2021/12/05 16:00:12;;;;;;;7.63;4.80;;;7.70;95.20;;;;;;4976737;28;20500;-72
2021/12/05 16:02:41;;;;;;;5.83;3.90;;;7.70;95.30;;;;;;4976627;28;20469;-72
2021/12/05 16:05:18;;;;;;;9.93;9.20;;;7.70;95.50;;;;;;4976608;28;20453;-72
2021/12/05 16:07:44;;;;;;;7.13;6.63;;;7.70;95.50;;;;;;4977132;28;20437;-72
2021/12/05 16:10:16;;;;;;;7.10;5.00;;;7.60;95.50;;;;;;4976300;28;20488;-74
2021/12/05 16:12:46;;;;;;;5.57;5.10;;;7.60;95.60;;;;;;4976435;28;20461;-72
2021/12/05 16:15:15;;;;;;;4.33;3.40;;;7.60;95.70;;;;;;4976343;28;20444;-74
2021/12/05 16:17:42;;;;;;;4.40;4.00;;;7.50;95.70;;;;;;4976373;28;20650;-72
2021/12/05 16:20:20;;;;;;;3.23;2.93;;;7.50;95.70;;;;;;4976831;28;20445;-70
2021/12/05 16:23:08;;;;;;;5.23;3.60;;;7.50;95.80;;;;;;4977191;28;20465;-75
2021/12/05 16:25:37;;;;;;;6.63;4.77;;;7.40;95.80;;;;;;4976251;28;20453;-74
2021/12/05 16:28:06;;;;;;;4.70;4.30;;;7.40;95.80;;;;;;4976214;28;20449;-74
2021/12/05 16:30:35;;;;;;;4.47;4.07;;;7.40;95.80;;;;;;4975732;28;20986;-75
2021/12/05 16:33:05;;;;;;;7.43;5.50;;;7.40;95.80;;;;;;4976011;28;20836;-73
2021/12/05 16:35:36;;;;;;;6.53;5.13;;;7.40;95.90;;;;;;4975770;28;20897;-72
2021/12/05 16:38:22;;;;;;;7.27;6.57;;;7.30;95.90;;;;;;4975713;28;20847;-72
2021/12/05 16:40:59;;;;;;;9.10;7.47;;;7.30;96.00;;;;;;4975965;28;20425;-73
2021/12/05 16:43:27;;;;;;;8.60;7.47;;;7.30;96.10;;;;;;4975481;28;20848;-73
2021/12/05 16:46:05;;;;;;;9.10;7.03;;;7.30;96.20;;;;;;4976003;28;20448;-73
2021/12/05 16:48:32;;;;;;;8.63;7.20;;;7.30;96.30;;;;;;4975509;28;20522;-73
2021/12/05 16:51:16;;;;;;;9.90;8.10;;;7.20;96.30;;;;;;4975589;28;20469;-73
2021/12/05 16:53:46;;;;;;;8.00;6.70;;;7.20;96.40;;;;;;4975706;28;20461;-73
2021/12/05 16:56:18;;;;;;;5.80;5.20;;;7.20;96.40;;;;;;4975510;28;20923;-73
2021/12/05 16:58:46;;;;;;;5.50;3.00;;;7.10;96.20;;;;;;4975686;28;20510;-73
2021/12/05 17:01:17;;;;;;;3.67;2.27;;;7.10;96.20;;;;;;4975815;28;20437;-73
2021/12/05 17:03:46;;;;;;;2.50;1.97;;;7.00;96.20;;;;;;4975544;28;20858;-73
2021/12/05 17:06:15;;;;;;;3.73;2.83;;;7.00;96.30;;;;;;4975510;28;20445;-73